Back to Top

Language: 

My Weather Underground Personal Weather Station Historical Data with Graphs...

Delerius Weather Station Historical Data
Daily Summary for November 4, 2017 Units:  English    Metric   Both
« Previous Day
Next Day »
Daily Weekly Monthly Yearly Custom
  High: Low: Average:
Temperature: 53.2 °F 41.2 °F 48.1 °F
Dew Point: 48.7 °F 37.0 °F 44.4 °F
Humidity: 96 % 68 % 87 %
Wind Speed: 13.0 mph 0.0 mph 4.8 mph
Wind Gust: 23.0 mph - -
Wind:- - West
Pressure: 29.71 in 29.58 in -
Precipitation: 0.07 in    
Historical Graphs
 
 
Tabular Data for November 4, 2017
Time Temperature Dew Point Pressure Wind Wind Speed Wind Gust Humidity Rainfall Rate (Hourly) solar Conditions
00:04 51.1 °F 47.0 °F 29.71 in South 5.0 mph 9.0 mph 86 % 0.01 in 0 W/m2
00:09 50.9 °F 47.2 °F 29.71 in SSW 4.0 mph 8.0 mph 87 % 0.01 in 0 W/m2
00:14 50.7 °F 47.3 °F 29.71 in South 6.0 mph 8.0 mph 88 % 0.01 in 0 W/m2
00:19 50.7 °F 47.3 °F 29.71 in SSE 4.0 mph 7.0 mph 88 % 0.01 in 0 W/m2
00:24 50.7 °F 47.3 °F 29.70 in SE 2.0 mph 7.0 mph 88 % 0.01 in 0 W/m2
00:29 50.5 °F 47.4 °F 29.70 in SSE 3.0 mph 9.0 mph 89 % 0.01 in 0 W/m2
00:34 50.5 °F 47.4 °F 29.69 in SSW 2.0 mph 6.0 mph 89 % 0.02 in 0 W/m2
00:39 50.5 °F 47.4 °F 29.69 in SSW 5.0 mph 8.0 mph 89 % 0.02 in 0 W/m2
00:44 50.4 °F 47.5 °F 29.69 in South 5.0 mph 8.0 mph 90 % 0.02 in 0 W/m2
00:49 50.4 °F 47.5 °F 29.69 in SSW 6.0 mph 10.0 mph 90 % 0.02 in 0 W/m2
00:54 50.4 °F 47.5 °F 29.68 in South 6.0 mph 8.0 mph 90 % 0.01 in 0 W/m2
01:04 50.4 °F 47.8 °F 29.68 in SW 5.0 mph 9.0 mph 91 % 0.01 in 0 W/m2
01:09 50.2 °F 47.7 °F 29.68 in SSW 5.0 mph 8.0 mph 91 % 0.01 in 0 W/m2
01:14 50.2 °F 47.7 °F 29.68 in SW 6.0 mph 10.0 mph 91 % 0.02 in 0 W/m2
01:19 50.2 °F 47.7 °F 29.67 in SSW 3.0 mph 6.0 mph 91 % 0.02 in 0 W/m2
01:24 50.0 °F 47.5 °F 29.67 in SSE 4.0 mph 8.0 mph 91 % 0.02 in 0 W/m2
01:29 50.0 °F 47.5 °F 29.67 in South 3.0 mph 6.0 mph 91 % 0.02 in 0 W/m2
01:34 49.8 °F 47.6 °F 29.67 in SSE 5.0 mph 8.0 mph 92 % 0.02 in 0 W/m2
01:39 49.8 °F 47.6 °F 29.66 in South 3.0 mph 6.0 mph 92 % 0.02 in 0 W/m2
01:44 49.8 °F 47.6 °F 29.66 in South 4.0 mph 8.0 mph 92 % 0.02 in 0 W/m2
01:49 49.6 °F 47.4 °F 29.66 in South 6.0 mph 10.0 mph 92 % 0.02 in 0 W/m2
01:54 49.6 °F 47.4 °F 29.65 in SSW 4.0 mph 8.0 mph 92 % 0.03 in 0 W/m2
01:59 49.6 °F 47.4 °F 29.65 in South 4.0 mph 8.0 mph 92 % 0.03 in 0 W/m2
02:04 49.6 °F 47.4 °F 29.65 in South 2.0 mph 7.0 mph 92 % 0.04 in 0 W/m2
02:09 49.6 °F 47.4 °F 29.65 in SSE 2.0 mph 6.0 mph 92 % 0.04 in 0 W/m2
02:14 49.6 °F 47.7 °F 29.64 in SSE 4.0 mph 9.0 mph 93 % 0.03 in 0 W/m2
02:19 49.6 °F 47.7 °F 29.64 in South 4.0 mph 7.0 mph 93 % 0.03 in 0 W/m2
02:24 49.5 °F 47.5 °F 29.64 in South 3.0 mph 7.0 mph 93 % 0.03 in 0 W/m2
02:29 49.5 °F 47.5 °F 29.63 in South 3.0 mph 7.0 mph 93 % 0.02 in 0 W/m2
02:34 49.5 °F 47.5 °F 29.63 in South 4.0 mph 7.0 mph 93 % 0.02 in 0 W/m2
02:39 49.5 °F 47.5 °F 29.63 in South 5.0 mph 10.0 mph 93 % 0.02 in 0 W/m2
02:45 49.5 °F 47.5 °F 29.62 in SSE 4.0 mph 7.0 mph 93 % 0.02 in 0 W/m2
02:50 49.6 °F 48.0 °F 29.62 in SSE 6.0 mph 9.0 mph 94 % 0.02 in 0 W/m2
02:55 49.6 °F 48.0 °F 29.62 in South 2.0 mph 6.0 mph 94 % 0.01 in 0 W/m2
03:00 49.6 °F 48.0 °F 29.62 in South 2.0 mph 8.0 mph 94 % 0.01 in 0 W/m2
03:05 49.6 °F 48.0 °F 29.62 in Calm     94 % 0.00 in 0 W/m2
03:10 49.6 °F 48.0 °F 29.61 in SSE 3.0 mph 6.0 mph 94 % 0.00 in 0 W/m2
03:16 49.6 °F 48.0 °F 29.61 in SE 3.0 mph 5.0 mph 94 % 0.00 in 0 W/m2
03:20 49.6 °F 48.0 °F 29.61 in SE 4.0 mph 6.0 mph 94 % 0.00 in 0 W/m2
03:23 49.6 °F 48.0 °F 29.60 in SE 4.0 mph 6.0 mph 94 % 0.00 in 0 W/m2
03:27 49.6 °F 48.0 °F 29.61 in SSE 3.0 mph 6.0 mph 94 % 0.00 in 0 W/m2
03:29 49.6 °F 48.0 °F 29.60 in SE 3.0 mph 7.0 mph 94 % 0.00 in 0 W/m2
03:30 49.6 °F 48.0 °F 29.60 in SE 4.0 mph 7.0 mph 94 % 0.00 in 0 W/m2
03:35 49.6 °F 48.0 °F 29.60 in SE 3.0 mph 6.0 mph 94 % 0.00 in 0 W/m2
03:40 49.6 °F 48.0 °F 29.60 in SSE 2.0 mph 5.0 mph 94 % 0.00 in 0 W/m2
03:45 49.6 °F 48.0 °F 29.60 in SSE 2.0 mph 6.0 mph 94 % 0.00 in 0 W/m2
03:50 49.6 °F 48.0 °F 29.60 in SSW 5.0 mph 11.0 mph 94 % 0.00 in 0 W/m2
03:55 49.6 °F 48.0 °F 29.59 in SSE 2.0 mph 5.0 mph 94 % 0.00 in 0 W/m2
04:00 49.6 °F 48.0 °F 29.59 in South 4.0 mph 8.0 mph 94 % 0.00 in 0 W/m2
04:05 49.8 °F 48.2 °F 29.59 in SSE 5.0 mph 9.0 mph 94 % 0.00 in 0 W/m2
04:10 49.8 °F 48.2 °F 29.59 in SSW 6.0 mph 9.0 mph 94 % 0.00 in 0 W/m2
04:15 50.2 °F 48.2 °F 29.59 in SW 3.0 mph 6.0 mph 93 % 0.00 in 0 W/m2
04:20 50.2 °F 48.2 °F 29.59 in SSW 3.0 mph 10.0 mph 93 % 0.00 in 0 W/m2
04:25 50.2 °F 48.2 °F 29.59 in WNW 1.0 mph 3.0 mph 93 % 0.00 in 0 W/m2
04:30 50.2 °F 48.2 °F 29.59 in SSE 3.0 mph 6.0 mph 93 % 0.00 in 0 W/m2
04:35 50.2 °F 48.2 °F 29.58 in SW 4.0 mph 6.0 mph 93 % 0.00 in 0 W/m2
04:37 50.2 °F 48.2 °F 29.58 in WSW 2.0 mph 6.0 mph 93 % 0.00 in 0 W/m2
04:42 50.2 °F 48.2 °F 29.59 in SSW 3.0 mph 5.0 mph 93 % 0.00 in 0 W/m2
04:47 50.2 °F 48.2 °F 29.58 in SSW 4.0 mph 7.0 mph 93 % 0.00 in 0 W/m2
04:52 50.0 °F 48.1 °F 29.58 in SSW 4.0 mph 7.0 mph 93 % 0.00 in 0 W/m2
04:57 50.0 °F 48.1 °F 29.58 in South 5.0 mph 9.0 mph 93 % 0.00 in 0 W/m2
05:02 50.0 °F 48.1 °F 29.58 in SSW 1.0 mph 6.0 mph 93 % 0.00 in 0 W/m2
05:07 50.0 °F 48.3 °F 29.58 in Calm     94 % 0.01 in 0 W/m2
05:12 50.0 °F 48.3 °F 29.58 in Calm   1.0 mph 94 % 0.01 in 0 W/m2
05:17 50.0 °F 48.3 °F 29.58 in Calm     94 % 0.01 in 0 W/m2
05:22 50.0 °F 48.3 °F 29.58 in Calm     94 % 0.01 in 0 W/m2
05:27 49.8 °F 48.2 °F 29.58 in Calm     94 % 0.01 in 0 W/m2
05:32 49.8 °F 48.2 °F 29.58 in SSW 1.0 mph 2.0 mph 94 % 0.01 in 0 W/m2
05:37 49.8 °F 48.2 °F 29.58 in Calm     94 % 0.01 in 0 W/m2
05:42 49.8 °F 48.2 °F 29.58 in Calm     94 % 0.02 in 0 W/m2
05:47 49.8 °F 48.2 °F 29.58 in Calm     94 % 0.02 in 0 W/m2
05:52 49.8 °F 48.4 °F 29.58 in Calm     95 % 0.02 in 0 W/m2
05:57 49.8 °F 48.4 °F 29.58 in Calm     95 % 0.02 in 0 W/m2
06:02 49.8 °F 48.4 °F 29.58 in Calm     95 % 0.02 in 0 W/m2
06:07 49.8 °F 48.4 °F 29.58 in Calm     95 % 0.01 in 0 W/m2
06:12 49.8 °F 48.4 °F 29.58 in Calm     95 % 0.01 in 0 W/m2
06:17 49.8 °F 48.4 °F 29.58 in Calm     95 % 0.01 in 0 W/m2
06:22 49.8 °F 48.4 °F 29.58 in SW 1.0 mph 3.0 mph 95 % 0.01 in 0 W/m2
06:27 49.8 °F 48.4 °F 29.58 in Calm     95 % 0.01 in 0 W/m2
06:32 49.8 °F 48.4 °F 29.58 in WSW 1.0 mph 4.0 mph 95 % 0.01 in 0 W/m2
06:37 49.8 °F 48.4 °F 29.58 in Calm   2.0 mph 95 % 0.01 in 0 W/m2
06:42 49.8 °F 48.4 °F 29.58 in Calm   2.0 mph 95 % 0.00 in 0 W/m2
06:47 49.8 °F 48.4 °F 29.58 in Calm   1.0 mph 95 % 0.00 in 0 W/m2
06:52 49.8 °F 48.4 °F 29.58 in WNW 1.0 mph 4.0 mph 95 % 0.00 in 0 W/m2
06:57 50.0 °F 48.6 °F 29.58 in Calm   1.0 mph 95 % 0.00 in 0 W/m2
07:02 50.0 °F 48.6 °F 29.58 in NW 2.0 mph 5.0 mph 95 % 0.00 in 0 W/m2
07:07 50.0 °F 48.6 °F 29.58 in WNW 2.0 mph 6.0 mph 95 % 0.00 in 0 W/m2
07:12 50.0 °F 48.6 °F 29.58 in NW 2.0 mph 5.0 mph 95 % 0.00 in 0 W/m2
07:17 50.0 °F 48.6 °F 29.58 in Calm   2.0 mph 95 % 0.00 in 0 W/m2
07:22 50.0 °F 48.6 °F 29.58 in Calm   2.0 mph 95 % 0.00 in 0 W/m2
07:27 50.0 °F 48.6 °F 29.58 in Calm   2.0 mph 95 % 0.00 in 0 W/m2
07:32 49.8 °F 48.4 °F 29.58 in Calm   1.0 mph 95 % 0.00 in 0 W/m2
07:37 49.8 °F 48.4 °F 29.58 in Calm     95 % 0.00 in 0 W/m2
07:42 49.8 °F 48.4 °F 29.59 in NW 1.0 mph 2.0 mph 95 % 0.00 in 0 W/m2
07:47 49.8 °F 48.4 °F 29.59 in Calm   1.0 mph 95 % 0.00 in 5 W/m2
07:52 49.8 °F 48.7 °F 29.59 in Calm     96 % 0.00 in 7 W/m2
07:57 49.8 °F 48.7 °F 29.58 in NW 1.0 mph 4.0 mph 96 % 0.00 in 11 W/m2
08:02 49.8 °F 48.7 °F 29.58 in Calm   1.0 mph 96 % 0.00 in 12 W/m2
08:07 49.6 °F 48.5 °F 29.58 in Calm     96 % 0.00 in 16 W/m2
08:13 49.6 °F 48.5 °F 29.58 in Calm   1.0 mph 96 % 0.00 in 18 W/m2
08:18 49.6 °F 48.5 °F 29.59 in Calm   2.0 mph 96 % 0.00 in 23 W/m2
08:23 49.6 °F 48.3 °F 29.59 in Calm     95 % 0.00 in 23 W/m2
08:28 49.6 °F 48.5 °F 29.59 in Calm     96 % 0.00 in 19 W/m2
08:33 49.6 °F 48.5 °F 29.58 in Calm     96 % 0.00 in 18 W/m2
08:38 49.6 °F 48.5 °F 29.59 in Calm     96 % 0.00 in 21 W/m2
08:43 49.8 °F 48.7 °F 29.59 in Calm     96 % 0.00 in 25 W/m2
08:48 49.6 °F 48.5 °F 29.59 in Calm     96 % 0.00 in 26 W/m2
08:53 49.6 °F 48.3 °F 29.58 in NW 1.0 mph 4.0 mph 95 % 0.01 in 33 W/m2
08:58 49.6 °F 48.5 °F 29.58 in Calm   1.0 mph 96 % 0.01 in 37 W/m2
09:03 49.6 °F 48.5 °F 29.58 in Calm   1.0 mph 96 % 0.01 in 37 W/m2
09:08 49.6 °F 48.5 °F 29.58 in Calm   2.0 mph 96 % 0.01 in 26 W/m2
09:13 49.6 °F 48.5 °F 29.58 in WNW 4.0 mph 6.0 mph 96 % 0.01 in 26 W/m2
09:18 49.6 °F 48.3 °F 29.58 in WNW 4.0 mph 5.0 mph 95 % 0.01 in 32 W/m2
09:23 49.5 °F 48.1 °F 29.58 in WNW 3.0 mph 6.0 mph 95 % 0.01 in 40 W/m2
09:28 49.5 °F 48.1 °F 29.58 in WNW 5.0 mph 7.0 mph 95 % 0.01 in 44 W/m2
09:33 49.3 °F 47.9 °F 29.58 in WNW 5.0 mph 7.0 mph 95 % 0.01 in 37 W/m2
09:38 49.3 °F 47.9 °F 29.58 in WNW 7.0 mph 10.0 mph 95 % 0.01 in 30 W/m2
09:43 49.3 °F 47.9 °F 29.58 in NW 5.0 mph 8.0 mph 95 % 0.01 in 28 W/m2
09:48 49.3 °F 47.9 °F 29.58 in NW 5.0 mph 7.0 mph 95 % 0.00 in 33 W/m2
09:53 49.3 °F 47.9 °F 29.58 in NW 4.0 mph 6.0 mph 95 % 0.00 in 35 W/m2
09:58 49.3 °F 47.9 °F 29.58 in WNW 6.0 mph 10.0 mph 95 % 0.00 in 51 W/m2
10:03 49.3 °F 47.9 °F 29.58 in WNW 5.0 mph 8.0 mph 95 % 0.00 in 62 W/m2
10:08 49.5 °F 48.1 °F 29.58 in WNW 8.0 mph 12.0 mph 95 % 0.00 in 60 W/m2
10:13 49.5 °F 47.8 °F 29.58 in WNW 8.0 mph 14.0 mph 94 % 0.00 in 74 W/m2
10:18 49.5 °F 47.8 °F 29.58 in WNW 7.0 mph 11.0 mph 94 % 0.00 in 102 W/m2
10:23 49.6 °F 48.0 °F 29.58 in WNW 5.0 mph 9.0 mph 94 % 0.00 in 109 W/m2
10:28 49.6 °F 48.0 °F 29.58 in WNW 6.0 mph 10.0 mph 94 % 0.00 in 111 W/m2
10:33 49.8 °F 47.9 °F 29.58 in NW 7.0 mph 14.0 mph 93 % 0.00 in 114 W/m2
10:38 50.0 °F 48.1 °F 29.58 in WNW 7.0 mph 11.0 mph 93 % 0.00 in 120 W/m2
10:43 50.0 °F 48.1 °F 29.58 in NW 7.0 mph 13.0 mph 93 % 0.00 in 130 W/m2
10:48 50.2 °F 47.9 °F 29.58 in WNW 7.0 mph 11.0 mph 92 % 0.00 in 128 W/m2
10:53 50.2 °F 47.9 °F 29.58 in WNW 7.0 mph 12.0 mph 92 % 0.00 in 130 W/m2
10:58 50.2 °F 47.9 °F 29.58 in WNW 7.0 mph 10.0 mph 92 % 0.00 in 134 W/m2
11:03 50.4 °F 47.8 °F 29.58 in WNW 9.0 mph 14.0 mph 91 % 0.00 in 141 W/m2
11:08 50.4 °F 47.8 °F 29.58 in WNW 8.0 mph 11.0 mph 91 % 0.00 in 151 W/m2
11:13 50.4 °F 47.8 °F 29.58 in WNW 7.0 mph 12.0 mph 91 % 0.00 in 162 W/m2
11:18 50.5 °F 48.0 °F 29.58 in WNW 10.0 mph 15.0 mph 91 % 0.00 in 148 W/m2
11:23 50.5 °F 47.7 °F 29.58 in WNW 10.0 mph 18.0 mph 90 % 0.00 in 120 W/m2
11:28 50.7 °F 47.9 °F 29.58 in WNW 9.0 mph 15.0 mph 90 % 0.00 in 171 W/m2
11:33 50.7 °F 47.9 °F 29.58 in WNW 8.0 mph 13.0 mph 90 % 0.00 in 144 W/m2
11:38 50.7 °F 47.6 °F 29.58 in WNW 10.0 mph 14.0 mph 89 % 0.00 in 114 W/m2
11:43 50.7 °F 47.3 °F 29.58 in WNW 8.0 mph 21.0 mph 88 % 0.00 in 118 W/m2
11:48 50.5 °F 47.1 °F 29.58 in WNW 9.0 mph 15.0 mph 88 % 0.00 in 120 W/m2
11:53 50.7 °F 47.3 °F 29.58 in WNW 10.0 mph 18.0 mph 88 % 0.00 in 265 W/m2
11:58 50.9 °F 47.5 °F 29.58 in WNW 11.0 mph 21.0 mph 88 % 0.00 in 301 W/m2
12:03 51.3 °F 47.2 °F 29.58 in WNW 11.0 mph 16.0 mph 86 % 0.00 in 216 W/m2
12:08 51.4 °F 47.4 °F 29.58 in WNW 8.0 mph 12.0 mph 86 % 0.00 in 229 W/m2
12:18 51.6 °F 47.3 °F 29.58 in NW 8.0 mph 15.0 mph 85 % 0.00 in 221 W/m2
12:23 51.6 °F 46.9 °F 29.58 in NW 10.0 mph 19.0 mph 84 % 0.00 in 253 W/m2
12:28 51.6 °F 46.9 °F 29.58 in WNW 10.0 mph 18.0 mph 84 % 0.00 in 185 W/m2
12:33 51.4 °F 46.4 °F 29.58 in WNW 11.0 mph 19.0 mph 83 % 0.00 in 195 W/m2
12:38 51.4 °F 46.8 °F 29.58 in WNW 5.0 mph 9.0 mph 84 % 0.00 in 190 W/m2
12:43 51.6 °F 46.6 °F 29.58 in WNW 11.0 mph 18.0 mph 83 % 0.00 in 200 W/m2
12:48 51.6 °F 46.3 °F 29.59 in WNW 12.0 mph 19.0 mph 82 % 0.00 in 221 W/m2
12:53 51.6 °F 46.3 °F 29.59 in WNW 11.0 mph 19.0 mph 82 % 0.00 in 223 W/m2
12:58 51.8 °F 46.2 °F 29.59 in WNW 11.0 mph 18.0 mph 81 % 0.00 in 244 W/m2
13:03 52.0 °F 46.0 °F 29.59 in NW 10.0 mph 15.0 mph 80 % 0.00 in 174 W/m2
13:08 52.0 °F 46.0 °F 29.59 in NW 10.0 mph 15.0 mph 80 % 0.00 in 148 W/m2
13:13 51.8 °F 45.5 °F 29.59 in NW 9.0 mph 15.0 mph 79 % 0.00 in 120 W/m2
13:18 51.6 °F 45.0 °F 29.58 in NW 9.0 mph 13.0 mph 78 % 0.00 in 100 W/m2
13:23 51.3 °F 44.3 °F 29.58 in NW 10.0 mph 16.0 mph 77 % 0.00 in 118 W/m2
13:28 51.1 °F 44.5 °F 29.58 in NW 10.0 mph 16.0 mph 78 % 0.00 in 267 W/m2
13:33 51.3 °F 45.3 °F 29.58 in WNW 8.0 mph 13.0 mph 80 % 0.00 in 121 W/m2
13:38 51.3 °F 45.3 °F 29.59 in WNW 10.0 mph 18.0 mph 80 % 0.00 in 118 W/m2
13:43 51.4 °F 45.1 °F 29.59 in WNW 11.0 mph 16.0 mph 79 % 0.00 in 364 W/m2
13:48 51.6 °F 45.3 °F 29.59 in WNW 10.0 mph 16.0 mph 79 % 0.00 in 360 W/m2
13:53 52.2 °F 45.8 °F 29.59 in WNW 9.0 mph 13.0 mph 79 % 0.00 in 339 W/m2
13:58 52.7 °F 46.0 °F 29.59 in WNW 9.0 mph 16.0 mph 78 % 0.00 in 343 W/m2
14:03 53.1 °F 46.0 °F 29.59 in WNW 9.0 mph 15.0 mph 77 % 0.00 in 279 W/m2
14:08 53.2 °F 44.8 °F 29.59 in NW 10.0 mph 18.0 mph 73 % 0.00 in 325 W/m2
14:14 53.2 °F 43.7 °F 29.60 in NW 11.0 mph 19.0 mph 70 % 0.00 in 267 W/m2
14:19 53.1 °F 42.8 °F 29.60 in WNW 13.0 mph 23.0 mph 68 % 0.00 in 265 W/m2
14:24 52.9 °F 43.0 °F 29.60 in NW 10.0 mph 18.0 mph 69 % 0.00 in 236 W/m2
14:29 52.3 °F 42.5 °F 29.60 in WNW 11.0 mph 18.0 mph 69 % 0.00 in 213 W/m2
14:34 52.2 °F 42.7 °F 29.61 in WNW 9.0 mph 16.0 mph 70 % 0.00 in 204 W/m2
14:39 52.2 °F 42.7 °F 29.60 in WNW 9.0 mph 14.0 mph 70 % 0.00 in 193 W/m2
14:44 52.2 °F 42.3 °F 29.61 in WNW 10.0 mph 14.0 mph 69 % 0.00 in 185 W/m2
14:49 52.2 °F 42.3 °F 29.60 in West 11.0 mph 18.0 mph 69 % 0.00 in 174 W/m2
14:54 51.8 °F 42.3 °F 29.61 in WNW 12.0 mph 19.0 mph 70 % 0.00 in 162 W/m2
14:59 51.4 °F 42.3 °F 29.61 in WNW 12.0 mph 18.0 mph 71 % 0.00 in 155 W/m2
15:04 51.1 °F 42.7 °F 29.61 in WNW 9.0 mph 15.0 mph 73 % 0.00 in 144 W/m2
15:09 50.9 °F 42.9 °F 29.61 in WNW 9.0 mph 14.0 mph 74 % 0.00 in 83 W/m2
15:14 50.7 °F 43.1 °F 29.61 in WNW 8.0 mph 14.0 mph 75 % 0.00 in 40 W/m2
15:19 50.5 °F 42.9 °F 29.61 in West 8.0 mph 12.0 mph 75 % 0.00 in 40 W/m2
15:24 50.2 °F 42.6 °F 29.61 in West 8.0 mph 11.0 mph 75 % 0.00 in 26 W/m2
15:29 49.8 °F 42.2 °F 29.62 in WNW 10.0 mph 14.0 mph 75 % 0.00 in 28 W/m2
15:34 49.6 °F 42.0 °F 29.62 in WNW 6.0 mph 9.0 mph 75 % 0.00 in 26 W/m2
15:39 49.5 °F 41.9 °F 29.62 in West 7.0 mph 12.0 mph 75 % 0.00 in 35 W/m2
15:44 49.3 °F 41.7 °F 29.63 in West 8.0 mph 14.0 mph 75 % 0.00 in 21 W/m2
15:49 49.1 °F 41.5 °F 29.62 in WNW 9.0 mph 13.0 mph 75 % 0.00 in 16 W/m2
15:54 48.7 °F 41.5 °F 29.62 in WNW 8.0 mph 12.0 mph 76 % 0.00 in 14 W/m2
15:59 48.6 °F 41.3 °F 29.62 in WNW 5.0 mph 10.0 mph 76 % 0.00 in 14 W/m2
16:04 48.2 °F 41.0 °F 29.63 in WNW 6.0 mph 11.0 mph 76 % 0.00 in 11 W/m2
16:09 47.8 °F 41.0 °F 29.62 in WNW 6.0 mph 11.0 mph 77 % 0.00 in 9 W/m2
16:14 47.7 °F 40.8 °F 29.62 in WNW 7.0 mph 12.0 mph 77 % 0.00 in 7 W/m2
16:19 47.5 °F 41.0 °F 29.62 in WNW 7.0 mph 10.0 mph 78 % 0.00 in 7 W/m2
16:24 47.1 °F 40.6 °F 29.63 in WNW 3.0 mph 7.0 mph 78 % 0.00 in 5 W/m2
16:29 46.9 °F 40.4 °F 29.63 in WNW 4.0 mph 8.0 mph 78 % 0.00 in 0 W/m2
16:34 46.8 °F 40.6 °F 29.63 in WNW 6.0 mph 11.0 mph 79 % 0.00 in 0 W/m2
16:39 46.4 °F 40.2 °F 29.63 in WNW 7.0 mph 10.0 mph 79 % 0.00 in 0 W/m2
16:44 46.2 °F 40.1 °F 29.63 in WNW 4.0 mph 7.0 mph 79 % 0.00 in 0 W/m2
16:49 46.0 °F 39.9 °F 29.64 in WNW 2.0 mph 5.0 mph 79 % 0.00 in 0 W/m2
16:54 45.9 °F 39.7 °F 29.64 in West 1.0 mph 5.0 mph 79 % 0.00 in 0 W/m2
17:00 45.7 °F 39.5 °F 29.64 in WNW 2.0 mph 5.0 mph 79 % 0.00 in 0 W/m2
17:05 45.5 °F 39.7 °F 29.64 in West 2.0 mph 6.0 mph 80 % 0.00 in 0 W/m2
17:10 45.3 °F 39.5 °F 29.64 in WNW 5.0 mph 9.0 mph 80 % 0.00 in 0 W/m2
17:15 45.1 °F 39.3 °F 29.64 in Calm     80 % 0.00 in 0 W/m2
17:20 45.0 °F 39.2 °F 29.64 in Calm   2.0 mph 80 % 0.00 in 0 W/m2
17:25 44.8 °F 39.3 °F 29.64 in NW 1.0 mph 2.0 mph 81 % 0.00 in 0 W/m2
17:30 44.6 °F 39.1 °F 29.64 in WNW 4.0 mph 7.0 mph 81 % 0.00 in 0 W/m2
17:35 44.4 °F 39.0 °F 29.64 in WNW 4.0 mph 8.0 mph 81 % 0.00 in 0 W/m2
17:40 44.6 °F 39.1 °F 29.64 in WNW 4.0 mph 9.0 mph 81 % 0.00 in 0 W/m2
17:45 44.8 °F 39.3 °F 29.64 in WNW 6.0 mph 10.0 mph 81 % 0.00 in 0 W/m2
17:50 44.8 °F 39.3 °F 29.64 in West 3.0 mph 9.0 mph 81 % 0.00 in 0 W/m2
17:55 44.6 °F 39.1 °F 29.64 in WSW 1.0 mph 4.0 mph 81 % 0.00 in 0 W/m2
18:00 44.4 °F 39.0 °F 29.64 in West 2.0 mph 7.0 mph 81 % 0.00 in 0 W/m2
18:05 44.6 °F 39.1 °F 29.64 in West 6.0 mph 12.0 mph 81 % 0.00 in 0 W/m2
18:10 44.8 °F 39.3 °F 29.65 in West 7.0 mph 13.0 mph 81 % 0.00 in 0 W/m2
18:15 44.8 °F 39.0 °F 29.65 in West 7.0 mph 9.0 mph 80 % 0.00 in 0 W/m2
18:20 44.8 °F 38.7 °F 29.65 in West 8.0 mph 12.0 mph 79 % 0.00 in 0 W/m2
18:25 45.0 °F 39.2 °F 29.65 in WNW 8.0 mph 11.0 mph 80 % 0.00 in 0 W/m2
18:30 44.8 °F 39.0 °F 29.65 in WNW 6.0 mph 9.0 mph 80 % 0.00 in 0 W/m2
18:35 44.8 °F 39.3 °F 29.65 in WNW 4.0 mph 6.0 mph 81 % 0.00 in 0 W/m2
18:40 44.8 °F 39.3 °F 29.65 in WNW 3.0 mph 6.0 mph 81 % 0.00 in 0 W/m2
18:45 44.6 °F 39.4 °F 29.65 in WNW 5.0 mph 11.0 mph 82 % 0.00 in 0 W/m2
18:50 44.6 °F 39.4 °F 29.65 in WNW 5.0 mph 8.0 mph 82 % 0.00 in 0 W/m2
18:55 44.6 °F 39.4 °F 29.65 in WNW 1.0 mph 4.0 mph 82 % 0.00 in 0 W/m2
19:00 44.4 °F 39.6 °F 29.66 in Calm   1.0 mph 83 % 0.00 in 0 W/m2
19:05 44.2 °F 39.4 °F 29.65 in West 2.0 mph 6.0 mph 83 % 0.00 in 0 W/m2
19:10 44.2 °F 39.7 °F 29.66 in WNW 6.0 mph 10.0 mph 84 % 0.00 in 0 W/m2
19:15 44.2 °F 40.0 °F 29.65 in West 5.0 mph 8.0 mph 85 % 0.00 in 0 W/m2
19:20 44.1 °F 39.8 °F 29.65 in West 3.0 mph 8.0 mph 85 % 0.00 in 0 W/m2
19:25 44.1 °F 39.8 °F 29.65 in West 4.0 mph 6.0 mph 85 % 0.00 in 0 W/m2
19:30 44.1 °F 39.8 °F 29.66 in WNW 3.0 mph 6.0 mph 85 % 0.00 in 0 W/m2
19:35 44.1 °F 40.1 °F 29.66 in West 8.0 mph 15.0 mph 86 % 0.00 in 0 W/m2
19:40 44.2 °F 40.3 °F 29.67 in West 12.0 mph 21.0 mph 86 % 0.00 in 0 W/m2
19:45 44.2 °F 40.0 °F 29.67 in WNW 10.0 mph 16.0 mph 85 % 0.00 in 0 W/m2
19:50 44.2 °F 40.0 °F 29.67 in WNW 8.0 mph 14.0 mph 85 % 0.00 in 0 W/m2
19:55 44.2 °F 40.0 °F 29.67 in WNW 7.0 mph 11.0 mph 85 % 0.00 in 0 W/m2
20:00 44.1 °F 39.8 °F 29.67 in WNW 6.0 mph 12.0 mph 85 % 0.00 in 0 W/m2
20:05 44.1 °F 39.8 °F 29.67 in WNW 6.0 mph 8.0 mph 85 % 0.00 in 0 W/m2
20:10 43.9 °F 39.7 °F 29.67 in WNW 5.0 mph 9.0 mph 85 % 0.00 in 0 W/m2
20:15 43.9 °F 40.0 °F 29.67 in WNW 4.0 mph 8.0 mph 86 % 0.00 in 0 W/m2
20:20 43.7 °F 39.8 °F 29.67 in Calm   2.0 mph 86 % 0.00 in 0 W/m2
20:25 43.5 °F 39.6 °F 29.67 in West 3.0 mph 5.0 mph 86 % 0.00 in 0 W/m2
20:30 43.3 °F 39.4 °F 29.67 in West 1.0 mph 4.0 mph 86 % 0.00 in 0 W/m2
20:35 43.2 °F 39.3 °F 29.67 in WSW 2.0 mph 6.0 mph 86 % 0.00 in 0 W/m2
20:40 43.2 °F 39.6 °F 29.68 in West 4.0 mph 7.0 mph 87 % 0.00 in 0 W/m2
20:45 43.0 °F 39.4 °F 29.67 in West 4.0 mph 8.0 mph 87 % 0.00 in 0 W/m2
20:50 43.0 °F 39.4 °F 29.67 in West 4.0 mph 7.0 mph 87 % 0.00 in 0 W/m2
20:55 42.8 °F 39.2 °F 29.67 in West 5.0 mph 8.0 mph 87 % 0.00 in 0 W/m2
21:00 42.6 °F 39.0 °F 29.67 in West 5.0 mph 8.0 mph 87 % 0.00 in 0 W/m2
21:06 42.4 °F 38.8 °F 29.67 in West 8.0 mph 13.0 mph 87 % 0.00 in 0 W/m2
21:10 42.4 °F 38.8 °F 29.67 in West 4.0 mph 10.0 mph 87 % 0.00 in 0 W/m2
21:16 42.3 °F 38.7 °F 29.67 in West 3.0 mph 8.0 mph 87 % 0.00 in 0 W/m2
21:21 42.3 °F 38.7 °F 29.67 in West 5.0 mph 10.0 mph 87 % 0.00 in 0 W/m2
21:26 42.3 °F 38.7 °F 29.67 in West 2.0 mph 7.0 mph 87 % 0.00 in 0 W/m2
21:31 42.1 °F 38.5 °F 29.68 in West 4.0 mph 7.0 mph 87 % 0.00 in 0 W/m2
21:36 42.1 °F 38.5 °F 29.67 in West 2.0 mph 6.0 mph 87 % 0.00 in 0 W/m2
21:41 42.1 °F 38.5 °F 29.67 in WNW 1.0 mph 5.0 mph 87 % 0.00 in 0 W/m2
21:46 41.9 °F 38.3 °F 29.67 in Calm   2.0 mph 87 % 0.00 in 0 W/m2
21:51 41.9 °F 38.3 °F 29.67 in West 4.0 mph 10.0 mph 87 % 0.00 in 0 W/m2
21:56 41.9 °F 38.3 °F 29.67 in West 5.0 mph 8.0 mph 87 % 0.00 in 0 W/m2
22:01 41.9 °F 38.3 °F 29.67 in West 5.0 mph 12.0 mph 87 % 0.00 in 0 W/m2
22:06 42.1 °F 38.5 °F 29.67 in West 6.0 mph 11.0 mph 87 % 0.00 in 0 W/m2
22:11 42.1 °F 38.5 °F 29.67 in West 6.0 mph 9.0 mph 87 % 0.00 in 0 W/m2
22:16 42.3 °F 38.7 °F 29.68 in West 4.0 mph 7.0 mph 87 % 0.00 in 0 W/m2
22:21 42.3 °F 38.7 °F 29.67 in West 4.0 mph 7.0 mph 87 % 0.00 in 0 W/m2
22:26 42.4 °F 38.8 °F 29.68 in West 2.0 mph 5.0 mph 87 % 0.00 in 0 W/m2
22:28 42.4 °F 38.8 °F 29.68 in West 2.0 mph 5.0 mph 87 % 0.00 in 0 W/m2
22:33 42.4 °F 38.8 °F 29.68 in West 3.0 mph 8.0 mph 87 % 0.00 in 0 W/m2
22:38 42.4 °F 38.8 °F 29.69 in West 5.0 mph 13.0 mph 87 % 0.00 in 0 W/m2
22:43 42.6 °F 39.0 °F 29.69 in West 8.0 mph 15.0 mph 87 % 0.00 in 0 W/m2
22:48 42.6 °F 38.7 °F 29.69 in West 8.0 mph 14.0 mph 86 % 0.00 in 0 W/m2
22:53 42.6 °F 38.7 °F 29.69 in West 8.0 mph 12.0 mph 86 % 0.00 in 0 W/m2
22:58 42.4 °F 38.2 °F 29.69 in West 9.0 mph 15.0 mph 85 % 0.00 in 0 W/m2
23:03 42.4 °F 37.9 °F 29.70 in WNW 9.0 mph 13.0 mph 84 % 0.00 in 0 W/m2
23:08 42.4 °F 37.6 °F 29.70 in WNW 9.0 mph 14.0 mph 83 % 0.00 in 0 W/m2
23:13 42.6 °F 37.8 °F 29.70 in WNW 9.0 mph 13.0 mph 83 % 0.00 in 0 W/m2
23:18 42.4 °F 37.6 °F 29.70 in West 8.0 mph 16.0 mph 83 % 0.00 in 0 W/m2
23:23 42.4 °F 37.6 °F 29.70 in West 9.0 mph 15.0 mph 83 % 0.00 in 0 W/m2
23:28 42.3 °F 37.5 °F 29.70 in West 9.0 mph 14.0 mph 83 % 0.00 in 0 W/m2
23:33 42.1 °F 37.6 °F 29.70 in West 7.0 mph 10.0 mph 84 % 0.00 in 0 W/m2
23:38 41.9 °F 37.4 °F 29.70 in West 11.0 mph 18.0 mph 84 % 0.00 in 0 W/m2
23:43 41.7 °F 37.2 °F 29.69 in West 9.0 mph 14.0 mph 84 % 0.00 in 0 W/m2
23:48 41.5 °F 37.1 °F 29.69 in WNW 9.0 mph 13.0 mph 84 % 0.00 in 0 W/m2
23:53 41.4 °F 37.2 °F 29.69 in WNW 6.0 mph 9.0 mph 85 % 0.00 in 0 W/m2
23:58 41.2 °F 37.0 °F 29.69 in WNW 6.0 mph 11.0 mph 85 % 0.00 in 0 W/m2
Delerius-Weather
Compliments of Weather Underground - 2.25 mb

Data updates at regular intervals.